Stallion Springs, California
Current Conditions -  °F | °C
As of 8:55 AM on Thursday 27 Nov 2014 (Local Time) from KTSP Reporting Station
Clear Clear  
Wind Chill: 61°   Ceiling: Unl
Heat Index: 61°   Visibility: 10mi
Dew Point: 21°   Wind: 13mph
Humidity: 22%   Direction: 110°ESE
Pressure: 30.31"   Gusts: NA
Location:  35.1338°N, 118.552°W
Report Text: KTSP 271655Z AUTO 11011KT 10SM CLR 16/M06 A3031 RMK AO2
Loading
Personal Weather Stations






























Interactive Weather Map New forecast layout! Learn more

10-Day Weather Forecast

Advertisements
Track Severe Weather on mobile